sensor_id;sensor_type;location;lat;lon;timestamp;P1;durP1;ratioP1;P2;durP2;ratioP2
7383;SDS011;3733;47.994;8.820;2022-08-19T00:01:32;35.80;;;23.70;;
7383;SDS011;3733;47.994;8.820;2022-08-19T00:04:00;38.97;;;24.17;;
7383;SDS011;3733;47.994;8.820;2022-08-19T00:06:28;30.60;;;23.13;;
7383;SDS011;3733;47.994;8.820;2022-08-19T00:08:55;36.33;;;24.27;;
7383;SDS011;3733;47.994;8.820;2022-08-19T00:11:21;41.97;;;23.90;;
7383;SDS011;3733;47.994;8.820;2022-08-19T00:13:47;34.27;;;24.30;;
7383;SDS011;3733;47.994;8.820;2022-08-19T00:16:15;30.07;;;22.03;;
7383;SDS011;3733;47.994;8.820;2022-08-19T00:18:45;31.67;;;22.60;;
7383;SDS011;3733;47.994;8.820;2022-08-19T00:21:11;32.50;;;22.27;;
7383;SDS011;3733;47.994;8.820;2022-08-19T00:23:37;31.33;;;21.90;;
7383;SDS011;3733;47.994;8.820;2022-08-19T00:26:03;32.23;;;20.40;;
7383;SDS011;3733;47.994;8.820;2022-08-19T00:28:29;33.47;;;22.73;;
7383;SDS011;3733;47.994;8.820;2022-08-19T00:30:55;31.87;;;22.63;;
7383;SDS011;3733;47.994;8.820;2022-08-19T00:33:21;30.93;;;21.60;;
7383;SDS011;3733;47.994;8.820;2022-08-19T00:35:47;34.10;;;22.30;;
7383;SDS011;3733;47.994;8.820;2022-08-19T00:38:13;33.97;;;21.87;;
7383;SDS011;3733;47.994;8.820;2022-08-19T00:40:39;34.70;;;21.67;;
7383;SDS011;3733;47.994;8.820;2022-08-19T00:43:10;32.67;;;21.57;;
7383;SDS011;3733;47.994;8.820;2022-08-19T00:45:38;35.00;;;21.87;;
7383;SDS011;3733;47.994;8.820;2022-08-19T00:48:09;31.40;;;21.60;;
7383;SDS011;3733;47.994;8.820;2022-08-19T00:50:35;28.47;;;21.40;;
7383;SDS011;3733;47.994;8.820;2022-08-19T00:53:03;31.53;;;21.30;;
7383;SDS011;3733;47.994;8.820;2022-08-19T00:55:29;36.03;;;21.50;;
7383;SDS011;3733;47.994;8.820;2022-08-19T00:57:59;28.97;;;21.03;;
7383;SDS011;3733;47.994;8.820;2022-08-19T01:00:26;29.10;;;20.60;;
7383;SDS011;3733;47.994;8.820;2022-08-19T01:02:54;24.83;;;18.30;;
7383;SDS011;3733;47.994;8.820;2022-08-19T01:05:21;28.00;;;20.50;;
7383;SDS011;3733;47.994;8.820;2022-08-19T01:07:49;29.40;;;21.30;;
7383;SDS011;3733;47.994;8.820;2022-08-19T01:10:16;33.27;;;23.17;;
7383;SDS011;3733;47.994;8.820;2022-08-19T01:12:46;29.37;;;21.83;;
7383;SDS011;3733;47.994;8.820;2022-08-19T01:15:14;29.27;;;20.87;;
7383;SDS011;3733;47.994;8.820;2022-08-19T01:17:42;33.23;;;22.47;;
7383;SDS011;3733;47.994;8.820;2022-08-19T01:20:11;35.20;;;22.43;;
7383;SDS011;3733;47.994;8.820;2022-08-19T01:28:13;32.03;;;21.60;;
7383;SDS011;3733;47.994;8.820;2022-08-19T01:30:50;31.43;;;21.67;;
7383;SDS011;3733;47.994;8.820;2022-08-19T01:33:16;29.27;;;20.27;;
7383;SDS011;3733;47.994;8.820;2022-08-19T01:35:44;33.53;;;21.10;;
7383;SDS011;3733;47.994;8.820;2022-08-19T01:38:19;34.33;;;23.83;;
7383;SDS011;3733;47.994;8.820;2022-08-19T01:40:48;34.37;;;22.67;;
7383;SDS011;3733;47.994;8.820;2022-08-19T01:43:14;33.90;;;21.27;;
7383;SDS011;3733;47.994;8.820;2022-08-19T01:45:40;36.73;;;23.50;;
7383;SDS011;3733;47.994;8.820;2022-08-19T01:48:07;33.40;;;22.17;;
7383;SDS011;3733;47.994;8.820;2022-08-19T01:50:34;33.60;;;22.67;;
7383;SDS011;3733;47.994;8.820;2022-08-19T01:53:00;33.00;;;23.37;;
7383;SDS011;3733;47.994;8.820;2022-08-19T01:55:29;35.83;;;23.50;;
7383;SDS011;3733;47.994;8.820;2022-08-19T01:57:55;36.67;;;24.33;;
7383;SDS011;3733;47.994;8.820;2022-08-19T02:00:25;36.70;;;22.63;;
7383;SDS011;3733;47.994;8.820;2022-08-19T02:02:52;36.50;;;24.23;;
7383;SDS011;3733;47.994;8.820;2022-08-19T02:05:19;43.93;;;24.57;;
7383;SDS011;3733;47.994;8.820;2022-08-19T02:07:46;35.77;;;24.17;;
7383;SDS011;3733;47.994;8.820;2022-08-19T02:10:14;38.33;;;23.93;;
7383;SDS011;3733;47.994;8.820;2022-08-19T02:12:45;41.23;;;24.33;;
7383;SDS011;3733;47.994;8.820;2022-08-19T02:15:11;37.57;;;24.73;;
7383;SDS011;3733;47.994;8.820;2022-08-19T02:17:37;37.77;;;24.33;;
7383;SDS011;3733;47.994;8.820;2022-08-19T02:20:04;43.03;;;23.93;;
7383;SDS011;3733;47.994;8.820;2022-08-19T02:22:31;37.03;;;24.57;;
7383;SDS011;3733;47.994;8.820;2022-08-19T02:24:56;40.53;;;25.70;;
7383;SDS011;3733;47.994;8.820;2022-08-19T02:27:22;40.83;;;24.27;;
7383;SDS011;3733;47.994;8.820;2022-08-19T02:29:48;41.70;;;24.23;;
7383;SDS011;3733;47.994;8.820;2022-08-19T02:32:15;36.40;;;24.00;;
7383;SDS011;3733;47.994;8.820;2022-08-19T02:34:43;37.93;;;24.83;;
7383;SDS011;3733;47.994;8.820;2022-08-19T02:37:09;41.00;;;26.20;;
7383;SDS011;3733;47.994;8.820;2022-08-19T02:39:54;39.37;;;24.77;;
7383;SDS011;3733;47.994;8.820;2022-08-19T02:42:20;35.20;;;24.13;;
7383;SDS011;3733;47.994;8.820;2022-08-19T02:44:46;41.93;;;25.43;;
7383;SDS011;3733;47.994;8.820;2022-08-19T02:47:11;39.17;;;24.07;;
7383;SDS011;3733;47.994;8.820;2022-08-19T02:49:39;40.37;;;26.10;;
7383;SDS011;3733;47.994;8.820;2022-08-19T02:52:04;39.57;;;26.70;;
7383;SDS011;3733;47.994;8.820;2022-08-19T02:54:30;40.33;;;26.33;;
7383;SDS011;3733;47.994;8.820;2022-08-19T02:56:56;38.17;;;24.50;;
7383;SDS011;3733;47.994;8.820;2022-08-19T02:59:21;42.83;;;27.23;;
7383;SDS011;3733;47.994;8.820;2022-08-19T03:01:47;40.17;;;25.57;;
7383;SDS011;3733;47.994;8.820;2022-08-19T03:04:14;35.40;;;24.63;;
7383;SDS011;3733;47.994;8.820;2022-08-19T03:06:41;38.17;;;25.17;;
7383;SDS011;3733;47.994;8.820;2022-08-19T03:09:09;40.67;;;25.47;;
7383;SDS011;3733;47.994;8.820;2022-08-19T03:11:36;41.80;;;24.40;;
7383;SDS011;3733;47.994;8.820;2022-08-19T03:14:03;41.70;;;24.50;;
7383;SDS011;3733;47.994;8.820;2022-08-19T03:16:32;41.83;;;26.10;;
7383;SDS011;3733;47.994;8.820;2022-08-19T03:19:00;43.70;;;26.73;;
7383;SDS011;3733;47.994;8.820;2022-08-19T03:21:27;39.53;;;25.90;;
7383;SDS011;3733;47.994;8.820;2022-08-19T03:23:55;42.53;;;26.63;;
7383;SDS011;3733;47.994;8.820;2022-08-19T03:26:22;42.20;;;25.13;;
7383;SDS011;3733;47.994;8.820;2022-08-19T03:28:48;45.33;;;27.57;;
7383;SDS011;3733;47.994;8.820;2022-08-19T03:31:15;43.93;;;26.47;;
7383;SDS011;3733;47.994;8.820;2022-08-19T03:33:44;41.57;;;25.43;;
7383;SDS011;3733;47.994;8.820;2022-08-19T03:38:41;48.37;;;26.70;;
7383;SDS011;3733;47.994;8.820;2022-08-19T03:41:10;44.13;;;27.07;;
7383;SDS011;3733;47.994;8.820;2022-08-19T03:43:38;41.37;;;27.20;;
7383;SDS011;3733;47.994;8.820;2022-08-19T03:46:06;44.33;;;25.70;;
7383;SDS011;3733;47.994;8.820;2022-08-19T03:48:37;43.83;;;26.37;;
7383;SDS011;3733;47.994;8.820;2022-08-19T03:51:05;44.00;;;26.43;;
7383;SDS011;3733;47.994;8.820;2022-08-19T03:53:32;45.70;;;27.23;;
7383;SDS011;3733;47.994;8.820;2022-08-19T03:55:58;46.17;;;28.77;;
7383;SDS011;3733;47.994;8.820;2022-08-19T03:58:25;42.00;;;25.50;;
7383;SDS011;3733;47.994;8.820;2022-08-19T04:00:53;45.93;;;27.20;;
7383;SDS011;3733;47.994;8.820;2022-08-19T04:03:23;47.73;;;26.40;;
7383;SDS011;3733;47.994;8.820;2022-08-19T04:05:49;41.07;;;25.87;;
7383;SDS011;3733;47.994;8.820;2022-08-19T04:08:15;42.10;;;26.80;;
7383;SDS011;3733;47.994;8.820;2022-08-19T04:10:44;43.00;;;27.03;;
7383;SDS011;3733;47.994;8.820;2022-08-19T04:13:11;44.33;;;27.17;;
7383;SDS011;3733;47.994;8.820;2022-08-19T04:15:40;47.67;;;27.43;;
7383;SDS011;3733;47.994;8.820;2022-08-19T04:18:08;38.67;;;26.27;;
7383;SDS011;3733;47.994;8.820;2022-08-19T04:20:44;47.40;;;27.93;;
7383;SDS011;3733;47.994;8.820;2022-08-19T04:23:12;55.13;;;29.13;;
7383;SDS011;3733;47.994;8.820;2022-08-19T04:25:39;42.63;;;25.50;;
7383;SDS011;3733;47.994;8.820;2022-08-19T04:28:08;44.47;;;27.93;;
7383;SDS011;3733;47.994;8.820;2022-08-19T04:30:42;46.47;;;28.00;;
7383;SDS011;3733;47.994;8.820;2022-08-19T04:33:10;46.87;;;27.63;;
7383;SDS011;3733;47.994;8.820;2022-08-19T04:35:37;44.93;;;27.70;;
7383;SDS011;3733;47.994;8.820;2022-08-19T04:38:05;45.10;;;27.33;;
7383;SDS011;3733;47.994;8.820;2022-08-19T04:40:31;48.10;;;30.03;;
7383;SDS011;3733;47.994;8.820;2022-08-19T04:43:15;42.40;;;26.30;;
7383;SDS011;3733;47.994;8.820;2022-08-19T04:45:42;41.33;;;27.00;;
7383;SDS011;3733;47.994;8.820;2022-08-19T04:48:08;47.20;;;28.47;;
7383;SDS011;3733;47.994;8.820;2022-08-19T04:50:35;41.97;;;26.60;;
7383;SDS011;3733;47.994;8.820;2022-08-19T04:53:01;43.00;;;25.90;;
7383;SDS011;3733;47.994;8.820;2022-08-19T04:55:26;45.60;;;26.70;;
7383;SDS011;3733;47.994;8.820;2022-08-19T04:57:52;44.40;;;26.20;;
7383;SDS011;3733;47.994;8.820;2022-08-19T05:00:19;45.07;;;26.07;;
7383;SDS011;3733;47.994;8.820;2022-08-19T05:02:45;48.77;;;27.20;;
7383;SDS011;3733;47.994;8.820;2022-08-19T05:05:10;45.27;;;27.30;;
7383;SDS011;3733;47.994;8.820;2022-08-19T05:07:37;46.80;;;26.40;;
7383;SDS011;3733;47.994;8.820;2022-08-19T05:10:04;42.83;;;25.50;;
7383;SDS011;3733;47.994;8.820;2022-08-19T05:12:31;39.97;;;26.50;;
7383;SDS011;3733;47.994;8.820;2022-08-19T05:14:57;41.20;;;25.27;;
7383;SDS011;3733;47.994;8.820;2022-08-19T05:17:26;47.30;;;25.73;;
7383;SDS011;3733;47.994;8.820;2022-08-19T05:19:52;40.00;;;25.23;;
7383;SDS011;3733;47.994;8.820;2022-08-19T05:22:38;35.23;;;23.93;;
7383;SDS011;3733;47.994;8.820;2022-08-19T05:25:08;36.53;;;24.00;;
7383;SDS011;3733;47.994;8.820;2022-08-19T05:27:38;38.43;;;24.90;;
7383;SDS011;3733;47.994;8.820;2022-08-19T05:30:04;35.43;;;24.00;;
7383;SDS011;3733;47.994;8.820;2022-08-19T05:32:30;41.37;;;24.87;;
7383;SDS011;3733;47.994;8.820;2022-08-19T05:34:56;41.30;;;27.27;;
7383;SDS011;3733;47.994;8.820;2022-08-19T05:37:22;40.50;;;26.87;;
7383;SDS011;3733;47.994;8.820;2022-08-19T05:39:48;46.57;;;27.53;;
7383;SDS011;3733;47.994;8.820;2022-08-19T05:42:14;42.23;;;25.80;;
7383;SDS011;3733;47.994;8.820;2022-08-19T05:44:42;45.17;;;25.60;;
7383;SDS011;3733;47.994;8.820;2022-08-19T05:47:13;43.90;;;28.27;;
7383;SDS011;3733;47.994;8.820;2022-08-19T05:49:40;46.13;;;27.40;;
7383;SDS011;3733;47.994;8.820;2022-08-19T05:52:08;48.80;;;28.33;;
7383;SDS011;3733;47.994;8.820;2022-08-19T05:54:37;43.13;;;28.93;;
7383;SDS011;3733;47.994;8.820;2022-08-19T05:57:06;47.37;;;27.40;;
7383;SDS011;3733;47.994;8.820;2022-08-19T05:59:33;40.30;;;27.40;;
7383;SDS011;3733;47.994;8.820;2022-08-19T06:02:00;43.17;;;25.63;;
7383;SDS011;3733;47.994;8.820;2022-08-19T06:04:27;44.67;;;27.70;;
7383;SDS011;3733;47.994;8.820;2022-08-19T06:06:53;40.63;;;26.40;;
7383;SDS011;3733;47.994;8.820;2022-08-19T06:09:21;44.07;;;27.00;;
7383;SDS011;3733;47.994;8.820;2022-08-19T06:11:49;38.87;;;26.03;;
7383;SDS011;3733;47.994;8.820;2022-08-19T06:14:22;37.90;;;25.20;;
7383;SDS011;3733;47.994;8.820;2022-08-19T06:16:51;37.83;;;24.70;;
7383;SDS011;3733;47.994;8.820;2022-08-19T06:19:20;34.27;;;23.40;;
7383;SDS011;3733;47.994;8.820;2022-08-19T06:21:48;38.73;;;25.63;;
7383;SDS011;3733;47.994;8.820;2022-08-19T06:24:15;39.20;;;24.73;;
7383;SDS011;3733;47.994;8.820;2022-08-19T06:26:45;34.67;;;23.73;;
7383;SDS011;3733;47.994;8.820;2022-08-19T06:29:13;37.63;;;24.63;;
7383;SDS011;3733;47.994;8.820;2022-08-19T06:31:41;40.67;;;26.03;;
7383;SDS011;3733;47.994;8.820;2022-08-19T06:34:09;38.60;;;24.53;;
7383;SDS011;3733;47.994;8.820;2022-08-19T06:36:37;38.47;;;24.33;;
7383;SDS011;3733;47.994;8.820;2022-08-19T06:39:11;38.93;;;25.90;;
7383;SDS011;3733;47.994;8.820;2022-08-19T06:41:42;35.93;;;25.23;;
7383;SDS011;3733;47.994;8.820;2022-08-19T06:44:09;39.90;;;24.27;;
7383;SDS011;3733;47.994;8.820;2022-08-19T06:46:36;45.97;;;25.30;;
7383;SDS011;3733;47.994;8.820;2022-08-19T06:49:02;41.57;;;26.20;;
7383;SDS011;3733;47.994;8.820;2022-08-19T06:51:28;39.10;;;25.20;;
7383;SDS011;3733;47.994;8.820;2022-08-19T06:53:55;37.37;;;25.30;;
7383;SDS011;3733;47.994;8.820;2022-08-19T06:56:22;40.17;;;25.60;;
7383;SDS011;3733;47.994;8.820;2022-08-19T06:58:51;39.40;;;24.23;;
7383;SDS011;3733;47.994;8.820;2022-08-19T07:01:17;36.03;;;24.17;;
7383;SDS011;3733;47.994;8.820;2022-08-19T07:03:44;38.73;;;25.87;;
7383;SDS011;3733;47.994;8.820;2022-08-19T07:06:12;41.80;;;24.10;;
7383;SDS011;3733;47.994;8.820;2022-08-19T07:08:42;41.10;;;25.83;;
7383;SDS011;3733;47.994;8.820;2022-08-19T07:11:10;45.33;;;26.63;;
7383;SDS011;3733;47.994;8.820;2022-08-19T07:13:38;39.57;;;25.67;;
7383;SDS011;3733;47.994;8.820;2022-08-19T07:16:08;43.73;;;25.60;;
7383;SDS011;3733;47.994;8.820;2022-08-19T07:18:36;44.20;;;26.17;;
7383;SDS011;3733;47.994;8.820;2022-08-19T07:21:06;45.10;;;26.93;;
7383;SDS011;3733;47.994;8.820;2022-08-19T07:23:38;40.47;;;25.90;;
7383;SDS011;3733;47.994;8.820;2022-08-19T07:26:04;47.10;;;27.30;;
7383;SDS011;3733;47.994;8.820;2022-08-19T07:28:31;43.63;;;27.20;;
7383;SDS011;3733;47.994;8.820;2022-08-19T07:30:57;63.67;;;27.77;;
7383;SDS011;3733;47.994;8.820;2022-08-19T07:33:23;44.13;;;27.50;;
7383;SDS011;3733;47.994;8.820;2022-08-19T07:35:48;43.93;;;27.60;;
7383;SDS011;3733;47.994;8.820;2022-08-19T07:38:15;53.13;;;28.20;;
7383;SDS011;3733;47.994;8.820;2022-08-19T07:40:41;50.53;;;26.17;;
7383;SDS011;3733;47.994;8.820;2022-08-19T07:43:07;45.70;;;27.00;;
7383;SDS011;3733;47.994;8.820;2022-08-19T07:45:33;49.60;;;27.23;;
7383;SDS011;3733;47.994;8.820;2022-08-19T07:47:59;52.00;;;27.80;;
7383;SDS011;3733;47.994;8.820;2022-08-19T07:50:25;54.77;;;27.93;;
7383;SDS011;3733;47.994;8.820;2022-08-19T07:52:51;46.93;;;27.87;;
7383;SDS011;3733;47.994;8.820;2022-08-19T07:55:19;49.40;;;28.60;;
7383;SDS011;3733;47.994;8.820;2022-08-19T07:57:47;47.33;;;27.00;;
7383;SDS011;3733;47.994;8.820;2022-08-19T08:00:13;46.90;;;27.00;;
7383;SDS011;3733;47.994;8.820;2022-08-19T08:02:39;44.80;;;27.07;;
7383;SDS011;3733;47.994;8.820;2022-08-19T08:05:07;43.00;;;26.43;;
7383;SDS011;3733;47.994;8.820;2022-08-19T08:07:52;46.03;;;28.27;;
7383;SDS011;3733;47.994;8.820;2022-08-19T08:10:36;53.83;;;28.60;;
7383;SDS011;3733;47.994;8.820;2022-08-19T08:13:02;52.90;;;29.20;;
7383;SDS011;3733;47.994;8.820;2022-08-19T08:15:30;49.40;;;27.57;;
7383;SDS011;3733;47.994;8.820;2022-08-19T08:17:56;49.60;;;27.10;;
7383;SDS011;3733;47.994;8.820;2022-08-19T08:20:23;50.17;;;28.87;;
7383;SDS011;3733;47.994;8.820;2022-08-19T08:22:49;50.40;;;28.03;;
7383;SDS011;3733;47.994;8.820;2022-08-19T08:25:33;46.77;;;28.10;;
7383;SDS011;3733;47.994;8.820;2022-08-19T08:28:00;54.23;;;29.73;;
7383;SDS011;3733;47.994;8.820;2022-08-19T08:30:28;48.80;;;27.77;;
7383;SDS011;3733;47.994;8.820;2022-08-19T08:32:55;45.83;;;27.37;;
7383;SDS011;3733;47.994;8.820;2022-08-19T08:35:21;47.57;;;27.70;;
7383;SDS011;3733;47.994;8.820;2022-08-19T08:37:48;44.93;;;27.77;;
7383;SDS011;3733;47.994;8.820;2022-08-19T08:46:06;46.60;;;28.20;;
7383;SDS011;3733;47.994;8.820;2022-08-19T08:48:54;45.63;;;26.07;;
7383;SDS011;3733;47.994;8.820;2022-08-19T08:51:29;50.80;;;28.20;;
7383;SDS011;3733;47.994;8.820;2022-08-19T08:54:04;44.57;;;26.70;;
7383;SDS011;3733;47.994;8.820;2022-08-19T08:56:35;43.53;;;27.03;;
7383;SDS011;3733;47.994;8.820;2022-08-19T08:59:10;47.90;;;27.93;;
7383;SDS011;3733;47.994;8.820;2022-08-19T09:02:05;44.93;;;27.70;;
7383;SDS011;3733;47.994;8.820;2022-08-19T09:04:33;46.07;;;28.20;;
7383;SDS011;3733;47.994;8.820;2022-08-19T09:09:54;49.67;;;28.90;;
7383;SDS011;3733;47.994;8.820;2022-08-19T09:15:22;41.33;;;25.97;;
7383;SDS011;3733;47.994;8.820;2022-08-19T09:17:53;48.80;;;29.57;;
7383;SDS011;3733;47.994;8.820;2022-08-19T09:20:19;40.03;;;26.00;;
7383;SDS011;3733;47.994;8.820;2022-08-19T09:22:47;45.73;;;28.23;;
7383;SDS011;3733;47.994;8.820;2022-08-19T09:25:16;44.93;;;27.43;;
7383;SDS011;3733;47.994;8.820;2022-08-19T09:27:45;44.27;;;27.63;;
7383;SDS011;3733;47.994;8.820;2022-08-19T09:30:19;45.50;;;28.70;;
7383;SDS011;3733;47.994;8.820;2022-08-19T09:32:47;45.57;;;27.90;;
7383;SDS011;3733;47.994;8.820;2022-08-19T09:35:14;45.00;;;27.30;;
7383;SDS011;3733;47.994;8.820;2022-08-19T09:37:40;42.30;;;27.20;;
7383;SDS011;3733;47.994;8.820;2022-08-19T09:40:08;43.47;;;26.27;;
7383;SDS011;3733;47.994;8.820;2022-08-19T09:42:34;41.70;;;26.90;;
7383;SDS011;3733;47.994;8.820;2022-08-19T09:45:00;45.53;;;28.43;;
7383;SDS011;3733;47.994;8.820;2022-08-19T09:47:29;44.00;;;27.87;;
7383;SDS011;3733;47.994;8.820;2022-08-19T09:49:55;45.60;;;29.60;;
7383;SDS011;3733;47.994;8.820;2022-08-19T09:52:22;47.03;;;27.97;;
7383;SDS011;3733;47.994;8.820;2022-08-19T09:54:47;47.63;;;30.37;;
7383;SDS011;3733;47.994;8.820;2022-08-19T09:57:18;42.83;;;28.10;;
7383;SDS011;3733;47.994;8.820;2022-08-19T09:59:43;45.53;;;29.43;;
7383;SDS011;3733;47.994;8.820;2022-08-19T10:02:09;44.17;;;28.20;;
7383;SDS011;3733;47.994;8.820;2022-08-19T10:04:35;43.63;;;28.90;;
7383;SDS011;3733;47.994;8.820;2022-08-19T10:07:20;44.83;;;29.37;;
7383;SDS011;3733;47.994;8.820;2022-08-19T10:09:46;47.40;;;30.50;;
7383;SDS011;3733;47.994;8.820;2022-08-19T10:12:12;48.07;;;29.33;;
7383;SDS011;3733;47.994;8.820;2022-08-19T10:14:40;44.63;;;29.47;;
7383;SDS011;3733;47.994;8.820;2022-08-19T10:17:06;51.23;;;30.87;;
7383;SDS011;3733;47.994;8.820;2022-08-19T10:19:31;49.37;;;28.87;;
7383;SDS011;3733;47.994;8.820;2022-08-19T10:22:02;47.80;;;29.93;;
7383;SDS011;3733;47.994;8.820;2022-08-19T10:24:30;45.23;;;29.03;;
7383;SDS011;3733;47.994;8.820;2022-08-19T10:26:56;48.27;;;28.50;;
7383;SDS011;3733;47.994;8.820;2022-08-19T10:29:22;50.97;;;28.83;;
7383;SDS011;3733;47.994;8.820;2022-08-19T10:31:48;48.93;;;29.90;;
7383;SDS011;3733;47.994;8.820;2022-08-19T10:34:13;41.13;;;26.60;;
7383;SDS011;3733;47.994;8.820;2022-08-19T10:36:39;44.83;;;27.70;;
7383;SDS011;3733;47.994;8.820;2022-08-19T10:39:09;46.80;;;27.87;;
7383;SDS011;3733;47.994;8.820;2022-08-19T10:41:37;45.43;;;27.83;;
7383;SDS011;3733;47.994;8.820;2022-08-19T10:44:05;43.60;;;28.13;;
7383;SDS011;3733;47.994;8.820;2022-08-19T10:46:43;40.73;;;27.23;;
7383;SDS011;3733;47.994;8.820;2022-08-19T10:49:10;45.53;;;27.67;;
7383;SDS011;3733;47.994;8.820;2022-08-19T10:51:37;43.43;;;28.60;;
7383;SDS011;3733;47.994;8.820;2022-08-19T10:54:22;42.93;;;28.20;;
7383;SDS011;3733;47.994;8.820;2022-08-19T10:57:08;41.57;;;27.00;;
7383;SDS011;3733;47.994;8.820;2022-08-19T10:59:34;41.80;;;27.37;;
7383;SDS011;3733;47.994;8.820;2022-08-19T11:02:01;41.77;;;27.80;;
7383;SDS011;3733;47.994;8.820;2022-08-19T11:04:30;38.60;;;27.47;;
7383;SDS011;3733;47.994;8.820;2022-08-19T11:06:56;45.97;;;28.80;;
7383;SDS011;3733;47.994;8.820;2022-08-19T11:09:23;40.87;;;26.87;;
7383;SDS011;3733;47.994;8.820;2022-08-19T11:11:50;38.20;;;24.80;;
7383;SDS011;3733;47.994;8.820;2022-08-19T11:14:18;37.60;;;26.20;;
7383;SDS011;3733;47.994;8.820;2022-08-19T11:16:46;36.37;;;25.20;;
7383;SDS011;3733;47.994;8.820;2022-08-19T11:19:12;38.40;;;25.17;;
7383;SDS011;3733;47.994;8.820;2022-08-19T11:21:41;32.83;;;23.80;;
7383;SDS011;3733;47.994;8.820;2022-08-19T11:24:10;37.13;;;23.80;;
7383;SDS011;3733;47.994;8.820;2022-08-19T11:26:37;36.83;;;24.37;;
7383;SDS011;3733;47.994;8.820;2022-08-19T11:29:04;36.13;;;24.93;;
7383;SDS011;3733;47.994;8.820;2022-08-19T11:31:32;40.50;;;24.50;;
7383;SDS011;3733;47.994;8.820;2022-08-19T11:34:05;36.47;;;24.37;;
7383;SDS011;3733;47.994;8.820;2022-08-19T11:36:32;41.50;;;25.97;;
7383;SDS011;3733;47.994;8.820;2022-08-19T11:38:58;37.27;;;25.80;;
7383;SDS011;3733;47.994;8.820;2022-08-19T11:41:25;33.50;;;23.90;;
7383;SDS011;3733;47.994;8.820;2022-08-19T11:43:51;43.17;;;27.20;;
7383;SDS011;3733;47.994;8.820;2022-08-19T11:46:19;39.13;;;27.00;;
7383;SDS011;3733;47.994;8.820;2022-08-19T11:48:45;41.40;;;27.40;;
7383;SDS011;3733;47.994;8.820;2022-08-19T11:51:14;41.40;;;27.03;;
7383;SDS011;3733;47.994;8.820;2022-08-19T11:53:41;41.40;;;28.27;;
7383;SDS011;3733;47.994;8.820;2022-08-19T11:56:06;39.50;;;27.83;;
7383;SDS011;3733;47.994;8.820;2022-08-19T11:58:33;48.27;;;29.83;;
7383;SDS011;3733;47.994;8.820;2022-08-19T12:00:59;41.87;;;27.00;;
7383;SDS011;3733;47.994;8.820;2022-08-19T12:03:25;38.00;;;27.97;;
7383;SDS011;3733;47.994;8.820;2022-08-19T12:05:51;45.03;;;29.40;;
7383;SDS011;3733;47.994;8.820;2022-08-19T12:08:17;39.40;;;26.40;;
7383;SDS011;3733;47.994;8.820;2022-08-19T12:10:43;38.53;;;26.50;;
7383;SDS011;3733;47.994;8.820;2022-08-19T12:13:10;44.27;;;28.30;;
7383;SDS011;3733;47.994;8.820;2022-08-19T12:15:44;44.20;;;27.83;;
7383;SDS011;3733;47.994;8.820;2022-08-19T12:18:11;45.10;;;28.40;;
7383;SDS011;3733;47.994;8.820;2022-08-19T12:20:39;44.00;;;29.07;;
7383;SDS011;3733;47.994;8.820;2022-08-19T12:23:07;47.13;;;29.20;;
7383;SDS011;3733;47.994;8.820;2022-08-19T12:25:37;48.80;;;30.40;;
7383;SDS011;3733;47.994;8.820;2022-08-19T12:28:20;45.10;;;30.67;;
7383;SDS011;3733;47.994;8.820;2022-08-19T12:30:48;43.07;;;28.73;;
7383;SDS011;3733;47.994;8.820;2022-08-19T12:33:15;42.93;;;29.63;;
7383;SDS011;3733;47.994;8.820;2022-08-19T12:35:43;43.00;;;29.27;;
7383;SDS011;3733;47.994;8.820;2022-08-19T12:38:11;40.13;;;27.70;;
7383;SDS011;3733;47.994;8.820;2022-08-19T12:40:37;41.30;;;27.83;;
7383;SDS011;3733;47.994;8.820;2022-08-19T12:43:05;39.30;;;27.27;;
7383;SDS011;3733;47.994;8.820;2022-08-19T12:45:31;40.97;;;27.60;;
7383;SDS011;3733;47.994;8.820;2022-08-19T12:47:57;40.13;;;28.57;;
7383;SDS011;3733;47.994;8.820;2022-08-19T12:50:24;43.23;;;28.20;;
7383;SDS011;3733;47.994;8.820;2022-08-19T12:52:50;40.53;;;29.27;;
7383;SDS011;3733;47.994;8.820;2022-08-19T12:55:16;40.33;;;27.90;;
7383;SDS011;3733;47.994;8.820;2022-08-19T12:57:43;43.57;;;28.97;;
7383;SDS011;3733;47.994;8.820;2022-08-19T13:00:11;42.50;;;30.53;;
7383;SDS011;3733;47.994;8.820;2022-08-19T13:02:40;47.03;;;30.93;;
7383;SDS011;3733;47.994;8.820;2022-08-19T13:05:09;42.97;;;30.23;;
7383;SDS011;3733;47.994;8.820;2022-08-19T13:07:38;43.27;;;30.20;;
7383;SDS011;3733;47.994;8.820;2022-08-19T13:10:09;44.47;;;30.90;;
7383;SDS011;3733;47.994;8.820;2022-08-19T13:12:36;46.50;;;30.00;;
7383;SDS011;3733;47.994;8.820;2022-08-19T13:15:03;52.23;;;31.77;;
7383;SDS011;3733;47.994;8.820;2022-08-19T13:17:29;47.83;;;32.57;;
7383;SDS011;3733;47.994;8.820;2022-08-19T13:19:55;51.50;;;34.33;;
7383;SDS011;3733;47.994;8.820;2022-08-19T13:22:21;55.00;;;31.63;;
7383;SDS011;3733;47.994;8.820;2022-08-19T13:24:46;58.63;;;32.37;;
7383;SDS011;3733;47.994;8.820;2022-08-19T13:27:13;51.53;;;32.20;;
7383;SDS011;3733;47.994;8.820;2022-08-19T13:29:39;54.10;;;33.07;;
7383;SDS011;3733;47.994;8.820;2022-08-19T13:32:24;44.80;;;31.63;;
7383;SDS011;3733;47.994;8.820;2022-08-19T13:35:08;48.27;;;32.70;;
7383;SDS011;3733;47.994;8.820;2022-08-19T13:37:34;39.57;;;30.23;;
7383;SDS011;3733;47.994;8.820;2022-08-19T13:40:07;51.67;;;32.77;;
7383;SDS011;3733;47.994;8.820;2022-08-19T13:42:40;45.97;;;30.63;;
7383;SDS011;3733;47.994;8.820;2022-08-19T13:45:07;47.93;;;32.53;;
7383;SDS011;3733;47.994;8.820;2022-08-19T13:47:33;50.23;;;33.40;;
7383;SDS011;3733;47.994;8.820;2022-08-19T13:50:00;50.37;;;33.07;;
7383;SDS011;3733;47.994;8.820;2022-08-19T13:52:28;48.10;;;32.33;;
7383;SDS011;3733;47.994;8.820;2022-08-19T13:54:54;49.20;;;33.20;;
7383;SDS011;3733;47.994;8.820;2022-08-19T13:57:21;50.43;;;32.97;;
7383;SDS011;3733;47.994;8.820;2022-08-19T13:59:47;46.03;;;32.67;;
7383;SDS011;3733;47.994;8.820;2022-08-19T14:02:12;47.60;;;33.80;;
7383;SDS011;3733;47.994;8.820;2022-08-19T14:04:38;54.63;;;35.40;;
7383;SDS011;3733;47.994;8.820;2022-08-19T14:07:04;47.20;;;33.70;;
7383;SDS011;3733;47.994;8.820;2022-08-19T14:09:29;47.67;;;33.03;;
7383;SDS011;3733;47.994;8.820;2022-08-19T14:11:55;55.67;;;34.43;;
7383;SDS011;3733;47.994;8.820;2022-08-19T14:14:21;48.97;;;34.57;;
7383;SDS011;3733;47.994;8.820;2022-08-19T14:16:47;48.60;;;34.03;;
7383;SDS011;3733;47.994;8.820;2022-08-19T14:19:13;45.13;;;32.67;;
7383;SDS011;3733;47.994;8.820;2022-08-19T14:21:39;52.33;;;34.00;;
7383;SDS011;3733;47.994;8.820;2022-08-19T14:24:06;50.70;;;34.60;;
7383;SDS011;3733;47.994;8.820;2022-08-19T14:26:32;47.20;;;33.40;;
7383;SDS011;3733;47.994;8.820;2022-08-19T14:28:58;53.90;;;34.50;;
7383;SDS011;3733;47.994;8.820;2022-08-19T14:31:24;50.27;;;35.30;;
7383;SDS011;3733;47.994;8.820;2022-08-19T14:33:50;53.63;;;36.97;;
7383;SDS011;3733;47.994;8.820;2022-08-19T14:36:17;52.80;;;33.70;;
7383;SDS011;3733;47.994;8.820;2022-08-19T14:38:44;48.53;;;34.77;;
7383;SDS011;3733;47.994;8.820;2022-08-19T14:43:42;52.43;;;35.63;;
7383;SDS011;3733;47.994;8.820;2022-08-19T14:46:11;50.47;;;35.17;;
7383;SDS011;3733;47.994;8.820;2022-08-19T14:48:38;52.67;;;36.20;;
7383;SDS011;3733;47.994;8.820;2022-08-19T14:51:04;48.23;;;35.33;;
7383;SDS011;3733;47.994;8.820;2022-08-19T14:53:31;50.47;;;36.40;;
7383;SDS011;3733;47.994;8.820;2022-08-19T14:55:58;51.77;;;35.60;;
7383;SDS011;3733;47.994;8.820;2022-08-19T14:58:25;55.00;;;37.33;;
7383;SDS011;3733;47.994;8.820;2022-08-19T15:00:51;50.57;;;34.63;;
7383;SDS011;3733;47.994;8.820;2022-08-19T15:03:16;45.17;;;32.90;;
7383;SDS011;3733;47.994;8.820;2022-08-19T15:05:42;49.17;;;35.07;;
7383;SDS011;3733;47.994;8.820;2022-08-19T15:08:08;50.87;;;33.47;;
7383;SDS011;3733;47.994;8.820;2022-08-19T15:10:33;46.43;;;33.57;;
7383;SDS011;3733;47.994;8.820;2022-08-19T15:12:59;47.80;;;35.70;;
7383;SDS011;3733;47.994;8.820;2022-08-19T15:15:25;49.50;;;34.53;;